createdAt,value
2023-08-04T00:09:00.065Z,101.57
2023-08-04T00:19:04.223Z,101.50
2023-08-04T00:29:07.504Z,101.06
2023-08-04T00:39:11.652Z,100.47
2023-08-04T00:49:14.400Z,99.98
2023-08-04T00:59:18.542Z,100.21
2023-08-04T01:09:31.789Z,100.46
2023-08-04T01:19:35.791Z,100.53
2023-08-04T01:29:41.137Z,100.76
2023-08-04T01:39:44.216Z,101.15
2023-08-04T01:49:48.387Z,101.52
2023-08-04T01:59:51.131Z,101.60
2023-08-04T02:09:55.385Z,101.64
2023-08-04T02:19:58.077Z,102.12
2023-08-04T02:30:02.168Z,102.75
2023-08-04T02:40:05.532Z,102.96
2023-08-04T02:50:10.528Z,102.90
2023-08-04T03:00:13.657Z,102.54
2023-08-04T03:10:17.810Z,102.22
2023-08-04T03:20:21.178Z,102.17
2023-08-04T03:30:25.379Z,101.85
2023-08-04T03:40:28.370Z,101.69
2023-08-04T03:50:32.777Z,101.73
2023-08-04T04:00:35.726Z,101.86
2023-08-04T04:10:39.759Z,101.52
2023-08-04T04:20:42.437Z,101.50
2023-08-04T04:30:46.501Z,101.57
2023-08-04T04:40:56.833Z,101.32
2023-08-04T04:51:00.954Z,101.45
2023-08-04T05:01:05.003Z,101.48
2023-08-04T05:11:09.253Z,101.90
2023-08-04T05:21:11.950Z,101.73
2023-08-04T05:31:15.962Z,101.67
2023-08-04T05:41:18.640Z,101.64
2023-08-04T05:51:23.757Z,101.21
2023-08-04T06:01:29.324Z,101.03
2023-08-04T06:11:33.532Z,100.45
2023-08-04T06:21:37.120Z,100.66
2023-08-04T06:31:41.494Z,99.67
2023-08-04T06:41:44.528Z,101.29
2023-08-04T06:51:50.918Z,100.75
2023-08-04T07:01:53.818Z,100.45
2023-08-04T07:11:58.043Z,100.06
2023-08-04T07:22:00.795Z,99.33
2023-08-04T07:32:05.477Z,99.07
2023-08-04T07:42:08.353Z,98.55
2023-08-04T07:52:12.697Z,95.55
2023-08-04T08:02:15.490Z,92.95
2023-08-04T08:12:19.704Z,93.37
2023-08-04T08:22:22.427Z,91.08
2023-08-04T08:32:26.576Z,89.68
2023-08-04T08:42:29.386Z,88.41
2023-08-04T08:52:36.405Z,86.78
2023-08-04T09:02:39.581Z,85.93
2023-08-04T09:12:45.443Z,82.94
2023-08-04T09:22:48.274Z,86.31
2023-08-04T09:32:52.473Z,88.02
2023-08-04T09:42:59.524Z,95.72
2023-08-04T09:53:06.327Z,102.82
2023-08-04T10:03:09.423Z,104.40
2023-08-04T10:13:14.111Z,103.93
2023-08-04T10:23:16.926Z,101.93
2023-08-04T10:33:23.711Z,101.13
2023-08-04T10:43:26.455Z,102.63
2023-08-04T10:53:31.241Z,101.11
2023-08-04T11:03:35.868Z,101.13
2023-08-04T11:13:40.854Z,100.99
2023-08-04T11:23:43.690Z,102.47
2023-08-04T11:33:47.903Z,101.40
2023-08-04T11:43:50.636Z,102.71
2023-08-04T11:53:54.837Z,104.13
2023-08-04T12:03:58.132Z,96.84
2023-08-04T12:14:09.561Z,99.98
2023-08-04T12:24:12.899Z,101.19
2023-08-04T12:34:17.139Z,82.86
2023-08-04T12:44:20.482Z,88.96
2023-08-04T12:54:24.808Z,88.86
2023-08-04T13:04:27.890Z,84.91
2023-08-04T13:14:32.075Z,81.20
2023-08-04T13:24:34.852Z,86.36
2023-08-04T13:34:38.929Z,78.30
2023-08-04T13:44:41.686Z,70.71
2023-08-04T13:54:45.759Z,67.27
2023-08-04T14:04:48.510Z,68.05
2023-08-04T14:14:54.846Z,64.39
2023-08-04T14:24:58.553Z,65.70
2023-08-04T14:35:02.648Z,69.90
2023-08-04T14:45:07.392Z,69.71
2023-08-04T14:55:11.668Z,65.82
2023-08-04T15:05:14.373Z,68.04
2023-08-04T15:15:18.703Z,68.09
2023-08-04T15:25:21.467Z,71.61
2023-08-04T15:35:25.628Z,69.51
2023-08-04T15:45:28.543Z,72.88
2023-08-04T15:55:32.736Z,72.04
2023-08-04T16:05:35.417Z,70.81
2023-08-04T16:15:39.452Z,68.26
2023-08-04T16:25:42.158Z,69.34
2023-08-04T16:35:47.634Z,71.72
2023-08-04T16:45:50.431Z,75.67
2023-08-04T16:55:55.023Z,77.56
2023-08-04T17:05:57.770Z,78.08
2023-08-04T17:16:10.405Z,77.66
2023-08-04T17:26:13.138Z,79.27
2023-08-04T17:36:17.210Z,78.59
2023-08-04T17:46:21.881Z,76.98
2023-08-04T17:56:26.051Z,74.57
2023-08-04T18:06:28.769Z,75.18
2023-08-04T18:16:32.879Z,77.73
2023-08-04T18:26:35.618Z,79.48
2023-08-04T18:36:39.702Z,80.30
2023-08-04T18:46:42.613Z,80.54
2023-08-04T18:56:47.024Z,81.24
2023-08-04T19:06:50.433Z,81.95
2023-08-04T19:16:54.801Z,82.20
2023-08-04T19:26:57.619Z,83.22
2023-08-04T19:37:01.809Z,82.39
2023-08-04T19:47:05.035Z,81.47
2023-08-04T19:57:09.597Z,82.62
2023-08-04T20:07:12.423Z,80.79
2023-08-04T20:17:16.461Z,81.12
2023-08-04T20:27:19.323Z,83.28
2023-08-04T20:37:23.469Z,84.40
2023-08-04T20:47:26.372Z,85.71
2023-08-04T20:57:30.409Z,87.35
2023-08-04T21:07:33.122Z,89.10
2023-08-04T21:17:37.302Z,89.15
2023-08-04T21:27:40.269Z,89.20
2023-08-04T21:37:44.425Z,90.22
2023-08-04T21:47:47.540Z,91.47
2023-08-04T21:57:51.896Z,92.45
2023-08-04T22:07:54.608Z,92.53
2023-08-04T22:17:58.706Z,93.26
2023-08-04T22:28:01.473Z,93.69
2023-08-04T22:38:05.807Z,94.46
2023-08-04T22:48:08.670Z,94.98
2023-08-04T22:58:12.759Z,95.66
2023-08-04T23:08:15.900Z,95.75
2023-08-04T23:18:20.806Z,96.39
2023-08-04T23:28:24.619Z,97.16
2023-08-04T23:38:32.478Z,96.88
